Adel, Georgia
Current Conditions -  °F | °C
As of 10:43 PM on Sunday 21 Dec 2014 (Local Time) from KVAD Reporting Station
Light Rain Light Rain  
Wind Chill: 11°   Ceiling: 200
Heat Index: 11°   Visibility: 5mi
Dew Point: 10°   Wind: 7mph
Humidity: 94%   Direction: 70°ENE
Pressure: 30.06"   Gusts: NA
Location:  31.14°N, 83.42°W
Report Text: KVAD 220343Z AUTO 07006KT 5SM R36/4500FT -RA BR OVC002 11/10 A3006 RMK AO2
Loading
Personal Weather Stations






























Interactive Weather Map New forecast layout! Learn more

10-Day Weather Forecast

Advertisements
Track Severe Weather on mobile